createdAt,value
2023-04-02T00:00:36.508Z,0.50
2023-04-02T00:03:10.495Z,0.50
2023-04-02T00:05:50.397Z,0.50
2023-04-02T00:08:39.070Z,0.50
2023-04-02T00:11:06.768Z,-0.80
2023-04-02T00:13:36.939Z,0.60
2023-04-02T00:16:06.894Z,0.60
2023-04-02T00:18:36.887Z,0.60
2023-04-02T00:21:24.361Z,0.50
2023-04-02T00:23:53.394Z,0.50
2023-04-02T00:26:31.711Z,0.50
2023-04-02T00:29:00.969Z,0.50
2023-04-02T00:31:28.009Z,0.40
2023-04-02T00:33:55.940Z,0.40
2023-04-02T00:36:24.951Z,0.50
2023-04-02T00:38:53.364Z,0.50
2023-04-02T00:41:24.648Z,0.50
2023-04-02T00:43:52.553Z,0.40
2023-04-02T00:46:24.311Z,0.50
2023-04-02T00:48:59.775Z,0.50
2023-04-02T00:51:32.663Z,0.50
2023-04-02T00:54:04.536Z,0.50
2023-04-02T00:56:42.483Z,0.60
2023-04-02T00:59:18.187Z,0.60
2023-04-02T01:01:45.154Z,0.60
2023-04-02T01:04:34.170Z,0.50
2023-04-02T01:07:05.203Z,0.40
2023-04-02T01:09:44.155Z,-1.60
2023-04-02T01:12:43.935Z,0.30
2023-04-02T01:15:13.953Z,0.30
2023-04-02T01:17:54.523Z,0.30
2023-04-02T01:20:43.405Z,0.30
2023-04-02T01:23:39.742Z,0.30
2023-04-02T01:26:25.986Z,0.30
2023-04-02T01:29:03.204Z,0.30
2023-04-02T01:31:33.167Z,0.40
2023-04-02T01:34:02.176Z,0.30
2023-04-02T01:36:36.941Z,0.30
2023-04-02T01:39:12.329Z,0.20
2023-04-02T01:41:53.564Z,0.20
2023-04-02T01:44:42.939Z,0.20
2023-04-02T01:47:17.132Z,0.10
2023-04-02T01:49:45.957Z,0.20
2023-04-02T01:52:19.197Z,0.20
2023-04-02T01:54:47.872Z,0.10
2023-04-02T01:57:15.861Z,0.10
2023-04-02T01:59:43.065Z,0.20
2023-04-02T02:02:13.423Z,0.10
2023-04-02T02:04:41.191Z,0.10
2023-04-02T02:07:16.624Z,0.20
2023-04-02T02:09:44.246Z,0.20
2023-04-02T02:12:14.091Z,0.20
2023-04-02T02:14:49.617Z,0.20
2023-04-02T02:17:19.772Z,0.20
2023-04-02T02:19:51.605Z,0.20
2023-04-02T02:22:30.754Z,0.20
2023-04-02T02:25:05.292Z,0.20
2023-04-02T02:27:32.149Z,0.30
2023-04-02T02:30:13.076Z,0.30
2023-04-02T02:32:51.019Z,0.30
2023-04-02T02:35:41.102Z,0.30
2023-04-02T02:38:43.078Z,0.30
2023-04-02T02:41:37.019Z,0.20
2023-04-02T02:44:06.902Z,0.10
2023-04-02T02:46:35.896Z,0.10
2023-04-02T02:49:04.827Z,0.10
2023-04-02T02:52:06.521Z,0.10
2023-04-02T02:54:34.518Z,0.10
2023-04-02T02:57:06.261Z,0.00
2023-04-02T02:59:33.473Z,0.00
2023-04-02T03:02:02.349Z,0.10
2023-04-02T03:04:35.649Z,0.10
2023-04-02T03:07:05.953Z,0.10
2023-04-02T03:09:59.275Z,0.10
2023-04-02T03:12:28.755Z,0.10
2023-04-02T03:15:34.512Z,0.10
2023-04-02T03:18:07.242Z,0.10
2023-04-02T03:20:43.671Z,0.00
2023-04-02T03:23:20.517Z,0.00
2023-04-02T03:26:08.536Z,0.00
2023-04-02T03:28:41.534Z,0.00
2023-04-02T03:31:26.563Z,0.00
2023-04-02T03:34:01.437Z,-0.10
2023-04-02T03:36:38.433Z,-0.10
2023-04-02T03:39:10.231Z,-0.10
2023-04-02T03:42:01.701Z,-0.10
2023-04-02T03:44:39.043Z,0.00
2023-04-02T03:47:19.753Z,0.00
2023-04-02T03:50:04.987Z,0.00
2023-04-02T03:52:34.085Z,0.00
2023-04-02T03:55:02.733Z,0.00
2023-04-02T03:57:41.179Z,-0.10
2023-04-02T04:00:20.847Z,-0.10
2023-04-02T04:03:02.886Z,-0.10
2023-04-02T04:05:34.625Z,-0.10
2023-04-02T04:08:06.243Z,-0.10
2023-04-02T04:10:34.769Z,-0.20
2023-04-02T04:13:06.417Z,-0.20
2023-04-02T04:15:36.021Z,-0.20
2023-04-02T04:18:11.934Z,-0.20
2023-04-02T04:21:01.164Z,-0.30
2023-04-02T04:23:36.068Z,-0.30
2023-04-02T04:26:09.800Z,-0.40
2023-04-02T04:28:44.868Z,-0.40
2023-04-02T04:31:18.192Z,-0.40
2023-04-02T04:33:53.798Z,-0.40
2023-04-02T04:36:31.029Z,-0.50
2023-04-02T04:39:05.818Z,-0.50
2023-04-02T04:41:36.732Z,-0.40
2023-04-02T04:44:39.160Z,-0.40
2023-04-02T04:47:18.699Z,-0.40
2023-04-02T04:49:53.281Z,-0.40
2023-04-02T04:52:30.048Z,-0.40
2023-04-02T04:54:57.149Z,-0.40
2023-04-02T04:57:34.288Z,-0.40
2023-04-02T05:00:19.644Z,-0.40
2023-04-02T05:03:06.887Z,-0.50
2023-04-02T05:05:38.814Z,-0.50
2023-04-02T05:08:19.829Z,-0.50
2023-04-02T05:10:52.289Z,-0.40
2023-04-02T05:13:28.389Z,-0.40
2023-04-02T05:16:17.943Z,-0.30
2023-04-02T05:18:52.409Z,-0.30
2023-04-02T05:21:29.184Z,-0.30
2023-04-02T05:24:32.714Z,-0.30
2023-04-02T05:27:05.563Z,-0.20
2023-04-02T05:29:37.187Z,-0.20
2023-04-02T05:32:13.998Z,-0.10
2023-04-02T05:34:46.323Z,-0.10
2023-04-02T05:37:26.696Z,-0.10
2023-04-02T05:39:56.877Z,-0.10
2023-04-02T05:42:32.516Z,0.00
2023-04-02T05:45:22.606Z,0.00
2023-04-02T05:47:52.295Z,0.10
2023-04-02T05:50:25.377Z,0.20
2023-04-02T05:52:57.968Z,0.40
2023-04-02T05:55:32.113Z,0.40
2023-04-02T05:58:29.643Z,0.50
2023-04-02T06:00:57.454Z,0.60
2023-04-02T06:03:44.800Z,0.70
2023-04-02T06:06:31.960Z,0.80
2023-04-02T06:09:05.744Z,0.90
2023-04-02T06:11:42.188Z,1.00
2023-04-02T06:14:12.982Z,1.10
2023-04-02T06:16:40.445Z,1.20
2023-04-02T06:19:14.988Z,1.40
2023-04-02T06:21:51.031Z,1.40
2023-04-02T06:24:24.375Z,1.40
2023-04-02T06:26:59.893Z,1.40
2023-04-02T06:29:40.133Z,1.40
2023-04-02T06:32:09.153Z,1.50
2023-04-02T06:34:39.872Z,1.40
2023-04-02T06:37:31.903Z,1.40
2023-04-02T06:40:00.753Z,1.40
2023-04-02T06:42:41.325Z,1.50
2023-04-02T06:45:18.949Z,1.50
2023-04-02T06:47:50.415Z,1.50
2023-04-02T06:50:31.570Z,1.60
2023-04-02T06:53:06.427Z,1.60
2023-04-02T06:55:56.875Z,1.60
2023-04-02T06:58:23.547Z,1.70
2023-04-02T07:00:51.231Z,1.80
2023-04-02T07:03:34.245Z,1.80
2023-04-02T07:06:03.895Z,1.90
2023-04-02T07:08:30.857Z,2.00
2023-04-02T07:10:57.769Z,2.10
2023-04-02T07:13:25.725Z,2.20
2023-04-02T07:15:54.785Z,2.30
2023-04-02T07:18:24.118Z,2.40
2023-04-02T07:20:52.192Z,2.50
2023-04-02T07:23:21.143Z,2.50
2023-04-02T07:25:53.247Z,2.60
2023-04-02T07:28:22.418Z,2.70
2023-04-02T07:30:51.119Z,2.80
2023-04-02T07:33:21.152Z,2.80
2023-04-02T07:35:49.198Z,2.90
2023-04-02T07:38:16.502Z,3.00
2023-04-02T07:40:43.623Z,3.10
2023-04-02T07:43:10.765Z,3.20
2023-04-02T07:45:38.007Z,3.40
2023-04-02T07:48:06.952Z,3.50
2023-04-02T07:50:34.079Z,3.50
2023-04-02T07:53:01.387Z,3.50
2023-04-02T07:55:28.335Z,3.60
2023-04-02T07:58:00.014Z,3.60
2023-04-02T08:00:29.067Z,3.70
2023-04-02T08:02:56.206Z,3.80
2023-04-02T08:05:23.056Z,3.90
2023-04-02T08:07:55.528Z,4.00
2023-04-02T08:10:23.309Z,4.00
2023-04-02T08:12:50.802Z,4.00
2023-04-02T08:15:18.533Z,4.10
2023-04-02T08:17:47.253Z,4.10
2023-04-02T08:20:22.861Z,4.20
2023-04-02T08:22:52.185Z,4.30
2023-04-02T08:25:19.585Z,4.30
2023-04-02T08:27:52.016Z,4.40
2023-04-02T08:30:31.549Z,4.50
2023-04-02T08:33:04.495Z,2.70
2023-04-02T08:35:32.135Z,4.60
2023-04-02T08:38:00.755Z,4.70
2023-04-02T08:40:34.732Z,4.80
2023-04-02T08:43:13.812Z,4.90
2023-04-02T08:46:02.219Z,6.40
2023-04-02T08:48:32.690Z,5.10
2023-04-02T08:51:02.667Z,5.80
2023-04-02T08:53:36.382Z,5.30
2023-04-02T08:56:21.347Z,6.70
2023-04-02T08:58:56.453Z,6.10
2023-04-02T09:01:35.152Z,5.50
2023-04-02T09:04:05.588Z,5.60
2023-04-02T09:06:34.762Z,5.80
2023-04-02T09:09:01.623Z,5.90
2023-04-02T09:11:42.307Z,6.00
2023-04-02T09:14:21.717Z,6.00
2023-04-02T09:16:59.146Z,6.20
2023-04-02T09:19:34.960Z,6.30
2023-04-02T09:22:29.657Z,6.30
2023-04-02T09:24:59.094Z,6.40
2023-04-02T09:27:29.524Z,6.40
2023-04-02T09:30:18.249Z,6.50
2023-04-02T09:32:49.938Z,6.60
2023-04-02T09:35:26.658Z,6.70
2023-04-02T09:38:18.380Z,6.70
2023-04-02T09:40:54.197Z,6.80
2023-04-02T09:43:24.409Z,6.80
2023-04-02T09:46:03.694Z,6.80
2023-04-02T09:48:43.961Z,6.80
2023-04-02T09:51:18.273Z,6.90
2023-04-02T09:53:50.027Z,7.00
2023-04-02T09:56:18.472Z,7.00
2023-04-02T09:58:46.032Z,7.10
2023-04-02T10:01:27.844Z,7.20
2023-04-02T10:03:55.340Z,7.20
2023-04-02T10:06:22.536Z,7.20
2023-04-02T10:08:49.238Z,7.40
2023-04-02T10:11:30.932Z,7.50
2023-04-02T10:14:05.932Z,7.50
2023-04-02T10:16:40.712Z,7.60
2023-04-02T10:19:21.566Z,7.60
2023-04-02T10:21:52.231Z,7.60
2023-04-02T10:24:19.285Z,7.70
2023-04-02T10:27:11.396Z,7.70
2023-04-02T10:30:05.448Z,7.60
2023-04-02T10:33:03.409Z,7.60
2023-04-02T10:35:52.024Z,7.70
2023-04-02T10:38:38.829Z,7.80
2023-04-02T10:41:37.498Z,7.90
2023-04-02T10:44:25.519Z,8.00
2023-04-02T10:47:07.966Z,8.10
2023-04-02T10:50:01.363Z,8.20
2023-04-02T10:52:34.239Z,8.30
2023-04-02T10:55:18.284Z,8.40
2023-04-02T10:57:46.416Z,8.40
2023-04-02T11:00:15.883Z,8.40
2023-04-02T11:02:57.592Z,8.40
2023-04-02T11:05:44.914Z,8.50
2023-04-02T11:08:22.476Z,8.50
2023-04-02T11:11:03.369Z,8.50
2023-04-02T11:13:53.971Z,8.50
2023-04-02T11:16:21.510Z,8.50
2023-04-02T11:19:17.620Z,8.50
2023-04-02T11:21:59.438Z,8.50
2023-04-02T11:24:31.633Z,8.60
2023-04-02T11:27:07.372Z,8.70
2023-04-02T11:29:42.320Z,8.80
2023-04-02T11:32:25.227Z,8.80
2023-04-02T11:35:05.974Z,8.80
2023-04-02T11:37:35.507Z,8.80
2023-04-02T11:40:08.445Z,8.80
2023-04-02T11:42:36.740Z,8.90
2023-04-02T11:45:24.400Z,8.90
2023-04-02T11:48:08.381Z,9.00
2023-04-02T11:50:41.439Z,9.10
2023-04-02T11:53:14.798Z,9.10
2023-04-02T11:56:05.771Z,9.20
2023-04-02T11:58:59.364Z,9.40
2023-04-02T12:01:44.263Z,9.50
2023-04-02T12:04:44.339Z,9.50
2023-04-02T12:07:34.939Z,9.50
2023-04-02T12:10:22.589Z,9.40
2023-04-02T12:12:50.580Z,9.40
2023-04-02T12:15:32.459Z,9.50
2023-04-02T12:18:21.439Z,9.50
2023-04-02T12:20:55.061Z,9.60
2023-04-02T12:23:32.184Z,9.70
2023-04-02T12:26:06.502Z,9.80
2023-04-02T12:28:34.551Z,9.70
2023-04-02T12:31:14.888Z,9.80
2023-04-02T12:33:42.487Z,9.80
2023-04-02T12:36:14.136Z,9.80
2023-04-02T12:38:53.327Z,9.80
2023-04-02T12:41:38.365Z,9.90
2023-04-02T12:44:13.548Z,9.80
2023-04-02T12:46:40.662Z,9.80
2023-04-02T12:49:25.302Z,9.80
2023-04-02T12:51:52.949Z,9.80
2023-04-02T12:54:23.191Z,9.80
2023-04-02T12:56:51.076Z,9.80
2023-04-02T12:59:34.894Z,9.90
2023-04-02T13:02:03.941Z,9.90
2023-04-02T13:04:31.385Z,9.90
2023-04-02T13:06:58.475Z,10.00
2023-04-02T13:09:35.818Z,10.00
2023-04-02T13:12:03.912Z,10.00
2023-04-02T13:14:31.287Z,10.00
2023-04-02T13:16:57.949Z,10.00
2023-04-02T13:19:33.349Z,10.00
2023-04-02T13:22:02.136Z,10.00
2023-04-02T13:24:33.110Z,9.90
2023-04-02T13:27:02.163Z,9.90
2023-04-02T13:29:36.416Z,9.90
2023-04-02T13:32:05.682Z,9.80
2023-04-02T13:34:32.633Z,10.20
2023-04-02T13:36:59.642Z,9.80
2023-04-02T13:39:27.191Z,9.70
2023-04-02T13:41:56.928Z,9.90
2023-04-02T13:44:30.025Z,9.80
2023-04-02T13:46:58.015Z,9.80
2023-04-02T13:49:25.556Z,9.80
2023-04-02T13:52:03.126Z,9.80
2023-04-02T13:54:37.242Z,9.90
2023-04-02T13:57:04.199Z,9.90
2023-04-02T13:59:31.415Z,9.90
2023-04-02T14:02:05.588Z,9.80
2023-04-02T14:04:38.242Z,9.80
2023-04-02T14:07:32.857Z,9.90
2023-04-02T14:10:04.203Z,9.80
2023-04-02T14:12:52.681Z,9.80
2023-04-02T14:15:38.312Z,9.80
2023-04-02T14:18:29.364Z,9.80
2023-04-02T14:21:18.396Z,9.90
2023-04-02T14:24:16.244Z,9.80
2023-04-02T14:27:03.058Z,9.80
2023-04-02T14:29:44.844Z,9.80
2023-04-02T14:32:36.144Z,9.90
2023-04-02T14:35:28.612Z,9.90
2023-04-02T14:38:01.466Z,10.00
2023-04-02T14:40:51.544Z,10.00
2023-04-02T14:43:25.306Z,10.10
2023-04-02T14:45:55.056Z,10.10
2023-04-02T14:48:27.542Z,10.00
2023-04-02T14:51:04.977Z,9.90
2023-04-02T14:53:53.840Z,9.90
2023-04-02T14:56:24.085Z,9.80
2023-04-02T15:01:34.060Z,10.00
2023-04-02T15:04:21.320Z,10.00
2023-04-02T15:06:53.160Z,10.00
2023-04-02T15:09:32.230Z,9.90
2023-04-02T15:12:24.891Z,9.80
2023-04-02T15:14:58.300Z,9.80
2023-04-02T15:17:25.198Z,9.80
2023-04-02T15:20:02.324Z,9.90
2023-04-02T15:22:47.683Z,9.90
2023-04-02T15:25:31.935Z,9.90
2023-04-02T15:28:09.584Z,10.00
2023-04-02T15:30:42.809Z,10.00
2023-04-02T15:33:28.153Z,10.00
2023-04-02T15:35:54.791Z,10.10
2023-04-02T15:38:31.141Z,10.10
2023-04-02T15:41:04.085Z,10.10
2023-04-02T15:43:39.174Z,10.00
2023-04-02T15:46:12.044Z,9.90
2023-04-02T15:48:51.414Z,9.90
2023-04-02T15:51:50.080Z,9.90
2023-04-02T15:54:27.138Z,9.80
2023-04-02T15:57:34.090Z,9.70
2023-04-02T16:00:31.172Z,9.80
2023-04-02T16:03:24.998Z,9.90
2023-04-02T16:06:06.799Z,9.40
2023-04-02T16:08:47.939Z,9.90
2023-04-02T16:11:15.359Z,9.80
2023-04-02T16:13:43.712Z,10.20
2023-04-02T16:16:34.632Z,9.80
2023-04-02T16:19:17.192Z,9.80
2023-04-02T16:21:51.777Z,9.70
2023-04-02T16:24:18.519Z,9.70
2023-04-02T16:26:57.583Z,9.70
2023-04-02T16:29:38.000Z,9.80
2023-04-02T16:32:14.085Z,9.90
2023-04-02T16:35:12.979Z,9.90
2023-04-02T16:38:12.157Z,9.80
2023-04-02T16:41:27.099Z,9.80
2023-04-02T16:43:57.127Z,9.90
2023-04-02T16:47:24.512Z,10.00
2023-04-02T16:49:59.780Z,10.00
2023-04-02T16:52:57.988Z,10.00
2023-04-02T16:55:48.633Z,10.10
2023-04-02T16:58:38.342Z,10.20
2023-04-02T17:01:31.510Z,10.20
2023-04-02T17:04:06.672Z,10.30
2023-04-02T17:07:03.003Z,10.30
2023-04-02T17:09:35.904Z,10.30
2023-04-02T17:12:16.299Z,10.40
2023-04-02T17:15:28.327Z,10.50
2023-04-02T17:17:58.667Z,10.80
2023-04-02T17:20:26.461Z,11.30
2023-04-02T17:22:54.239Z,11.80
2023-04-02T17:25:47.713Z,12.40
2023-04-02T17:28:25.183Z,12.80
2023-04-02T17:30:58.673Z,13.10
2023-04-02T17:33:27.103Z,13.30
2023-04-02T17:35:59.939Z,13.40
2023-04-02T17:38:43.451Z,13.40
2023-04-02T17:41:13.165Z,13.30
2023-04-02T17:44:08.550Z,12.60
2023-04-02T17:46:52.533Z,11.90
2023-04-02T17:49:31.292Z,11.30
2023-04-02T17:52:23.734Z,10.90
2023-04-02T17:55:02.695Z,10.50
2023-04-02T17:57:35.773Z,10.10
2023-04-02T18:00:21.263Z,9.80
2023-04-02T18:03:00.307Z,9.60
2023-04-02T18:05:43.920Z,9.50
2023-04-02T18:08:35.303Z,9.10
2023-04-02T18:11:18.549Z,8.90
2023-04-02T18:14:20.259Z,8.70
2023-04-02T18:16:53.594Z,8.50
2023-04-02T18:19:34.446Z,8.40
2023-04-02T18:22:41.326Z,8.20
2023-04-02T18:25:18.376Z,8.00
2023-04-02T18:27:57.005Z,7.80
2023-04-02T18:30:35.155Z,7.60
2023-04-02T18:33:24.178Z,7.60
2023-04-02T18:36:05.158Z,7.40
2023-04-02T18:38:46.386Z,7.30
2023-04-02T18:41:47.669Z,7.20
2023-04-02T18:44:36.441Z,7.10
2023-04-02T18:47:21.495Z,6.90
2023-04-02T18:50:10.991Z,6.80
2023-04-02T18:52:39.587Z,6.70
2023-04-02T18:55:14.876Z,6.60
2023-04-02T18:57:45.051Z,6.40
2023-04-02T19:00:29.753Z,6.20
2023-04-02T19:03:22.925Z,6.10
2023-04-02T19:06:06.111Z,5.90
2023-04-02T19:08:35.961Z,5.80
2023-04-02T19:11:16.116Z,5.60
2023-04-02T19:13:44.979Z,5.60
2023-04-02T19:16:17.860Z,5.50
2023-04-02T19:18:55.700Z,5.40
2023-04-02T19:21:31.398Z,5.30
2023-04-02T19:24:26.246Z,5.20
2023-04-02T19:27:01.117Z,5.10
2023-04-02T19:29:58.731Z,5.00
2023-04-02T19:32:44.232Z,4.90
2023-04-02T19:35:46.600Z,4.80
2023-04-02T19:39:00.129Z,4.70
2023-04-02T19:41:35.589Z,4.60
2023-04-02T19:44:02.771Z,4.40
2023-04-02T19:46:29.553Z,4.40
2023-04-02T19:49:17.060Z,4.20
2023-04-02T19:51:44.136Z,4.10
2023-04-02T19:54:11.009Z,4.00
2023-04-02T19:56:38.215Z,3.90
2023-04-02T19:59:17.241Z,3.80
2023-04-02T20:01:44.717Z,3.70
2023-04-02T20:04:11.482Z,3.60
2023-04-02T20:06:38.213Z,3.60
2023-04-02T20:09:04.904Z,3.50
2023-04-02T20:11:31.609Z,3.40
2023-04-02T20:13:58.423Z,3.40
2023-04-02T20:16:25.215Z,3.30
2023-04-02T20:18:51.998Z,3.30
2023-04-02T20:21:19.033Z,3.20
2023-04-02T20:23:45.734Z,3.10
2023-04-02T20:26:12.717Z,3.00
2023-04-02T20:28:39.895Z,2.90
2023-04-02T20:31:13.253Z,2.70
2023-04-02T20:33:40.232Z,2.60
2023-04-02T20:36:15.933Z,2.60
2023-04-02T20:38:43.427Z,2.60
2023-04-02T20:41:10.858Z,2.50
2023-04-02T20:43:44.693Z,2.50
2023-04-02T20:46:12.731Z,2.40
2023-04-02T20:48:39.952Z,2.30
2023-04-02T20:51:08.471Z,2.30
2023-04-02T20:53:36.870Z,2.20
2023-04-02T20:56:06.564Z,2.00
2023-04-02T20:58:35.032Z,1.90
2023-04-02T21:01:13.259Z,1.80
2023-04-02T21:03:40.139Z,1.90
2023-04-02T21:06:13.008Z,1.80
2023-04-02T21:08:40.125Z,1.70
2023-04-02T21:11:07.511Z,1.60
2023-04-02T21:13:38.274Z,1.50
2023-04-02T21:16:30.132Z,1.40
2023-04-02T21:18:58.656Z,1.30
2023-04-02T21:21:26.208Z,1.20
2023-04-02T21:23:59.370Z,1.10
2023-04-02T21:26:27.444Z,1.00
2023-04-02T21:28:55.276Z,1.10
2023-04-02T21:31:28.073Z,1.10
2023-04-02T21:33:57.308Z,1.00
2023-04-02T21:36:28.183Z,1.00
2023-04-02T21:38:57.731Z,1.00
2023-04-02T21:41:30.370Z,1.00
2023-04-02T21:43:58.278Z,1.00
2023-04-02T21:46:28.039Z,1.00
2023-04-02T21:48:56.418Z,0.90
2023-04-02T21:51:26.140Z,0.90
2023-04-02T21:53:56.003Z,0.90
2023-04-02T21:56:30.944Z,0.90
2023-04-02T21:58:58.688Z,0.90
2023-04-02T22:01:30.110Z,1.00
2023-04-02T22:03:58.942Z,1.00
2023-04-02T22:06:28.317Z,0.90
2023-04-02T22:09:01.020Z,0.80
2023-04-02T22:11:31.602Z,0.80
2023-04-02T22:13:58.819Z,0.80
2023-04-02T22:16:28.813Z,0.70
2023-04-02T22:18:57.446Z,0.60
2023-04-02T22:21:25.473Z,0.50
2023-04-02T22:23:53.176Z,0.50
2023-04-02T22:26:23.021Z,0.50
2023-04-02T22:28:52.431Z,0.50
2023-04-02T22:31:22.451Z,0.40
2023-04-02T22:33:50.522Z,0.30
2023-04-02T22:36:18.857Z,0.20
2023-04-02T22:38:45.949Z,0.20
2023-04-02T22:41:18.476Z,0.20
2023-04-02T22:43:46.278Z,0.10
2023-04-02T22:46:15.962Z,0.00
2023-04-02T22:48:44.140Z,0.00
2023-04-02T22:51:12.716Z,0.00
2023-04-02T22:53:39.809Z,-0.10
2023-04-02T22:56:15.463Z,-0.10
2023-04-02T22:58:42.554Z,-0.10
2023-04-02T23:01:11.857Z,-0.10
2023-04-02T23:03:39.007Z,-0.20
2023-04-02T23:06:08.866Z,-0.20
2023-04-02T23:08:36.806Z,-0.30
2023-04-02T23:11:23.905Z,-0.40
2023-04-02T23:13:52.851Z,-0.40
2023-04-02T23:16:20.657Z,-0.30
2023-04-02T23:18:48.441Z,-0.30
2023-04-02T23:21:16.369Z,-0.30
2023-04-02T23:23:43.242Z,-0.30
2023-04-02T23:26:13.837Z,-0.30
2023-04-02T23:28:40.973Z,-0.30
2023-04-02T23:31:11.540Z,-0.30
2023-04-02T23:33:38.347Z,-0.20
2023-04-02T23:36:10.524Z,-0.20
2023-04-02T23:38:37.252Z,0.00
2023-04-02T23:41:04.110Z,0.10
2023-04-02T23:43:31.225Z,0.00
2023-04-02T23:45:58.127Z,0.00
2023-04-02T23:48:24.837Z,-0.10
2023-04-02T23:50:51.494Z,-0.10
2023-04-02T23:53:18.797Z,-0.20
2023-04-02T23:55:45.914Z,-0.10
2023-04-02T23:58:12.641Z,-0.10
